sensor_id;sensor_type;location;lat;lon;timestamp;temperature;humidity
28530;DHT22;15737;49.760;6.632;2023-12-20T00:02:19;5.50;99.90
28530;DHT22;15737;49.760;6.632;2023-12-20T00:04:44;5.50;99.90
28530;DHT22;15737;49.760;6.632;2023-12-20T00:07:10;5.50;99.90
28530;DHT22;15737;49.760;6.632;2023-12-20T00:09:35;5.50;99.90
28530;DHT22;15737;49.760;6.632;2023-12-20T00:12:01;5.50;99.90
28530;DHT22;15737;49.760;6.632;2023-12-20T00:14:26;5.50;99.90
28530;DHT22;15737;49.760;6.632;2023-12-20T00:16:52;5.50;99.90
28530;DHT22;15737;49.760;6.632;2023-12-20T00:19:17;5.50;99.90
28530;DHT22;15737;49.760;6.632;2023-12-20T00:21:43;5.50;99.90
28530;DHT22;15737;49.760;6.632;2023-12-20T00:24:08;5.50;99.90
28530;DHT22;15737;49.760;6.632;2023-12-20T00:26:33;5.50;99.90
28530;DHT22;15737;49.760;6.632;2023-12-20T00:28:59;5.60;99.90
28530;DHT22;15737;49.760;6.632;2023-12-20T00:31:25;5.60;99.90
28530;DHT22;15737;49.760;6.632;2023-12-20T00:33:50;5.60;99.90
28530;DHT22;15737;49.760;6.632;2023-12-20T00:36:16;5.60;99.90
28530;DHT22;15737;49.760;6.632;2023-12-20T00:38:41;5.70;99.90
28530;DHT22;15737;49.760;6.632;2023-12-20T00:41:07;5.70;99.90
28530;DHT22;15737;49.760;6.632;2023-12-20T00:43:32;5.70;99.90
28530;DHT22;15737;49.760;6.632;2023-12-20T00:45:58;5.60;99.90
28530;DHT22;15737;49.760;6.632;2023-12-20T00:48:25;5.60;99.90
28530;DHT22;15737;49.760;6.632;2023-12-20T00:50:52;5.60;99.90
28530;DHT22;15737;49.760;6.632;2023-12-20T00:53:18;5.60;99.90
28530;DHT22;15737;49.760;6.632;2023-12-20T00:55:44;5.60;99.90
28530;DHT22;15737;49.760;6.632;2023-12-20T00:58:10;5.60;99.90
28530;DHT22;15737;49.760;6.632;2023-12-20T01:00:35;5.60;99.90
28530;DHT22;15737;49.760;6.632;2023-12-20T01:03:01;5.60;99.90
28530;DHT22;15737;49.760;6.632;2023-12-20T01:05:26;5.70;99.90
28530;DHT22;15737;49.760;6.632;2023-12-20T01:10:22;5.60;99.90
28530;DHT22;15737;49.760;6.632;2023-12-20T01:12:48;5.60;99.90
28530;DHT22;15737;49.760;6.632;2023-12-20T01:15:13;5.60;99.90
28530;DHT22;15737;49.760;6.632;2023-12-20T01:17:39;5.60;99.90
28530;DHT22;15737;49.760;6.632;2023-12-20T01:20:05;5.70;99.90
28530;DHT22;15737;49.760;6.632;2023-12-20T01:22:31;5.70;99.90
28530;DHT22;15737;49.760;6.632;2023-12-20T01:24:56;5.70;99.90
28530;DHT22;15737;49.760;6.632;2023-12-20T01:27:22;5.70;99.90
28530;DHT22;15737;49.760;6.632;2023-12-20T01:29:47;5.70;99.90
28530;DHT22;15737;49.760;6.632;2023-12-20T01:32:13;5.60;99.90
28530;DHT22;15737;49.760;6.632;2023-12-20T01:34:38;5.70;99.90
28530;DHT22;15737;49.760;6.632;2023-12-20T01:37:04;5.70;99.90
28530;DHT22;15737;49.760;6.632;2023-12-20T01:39:29;5.70;99.90
28530;DHT22;15737;49.760;6.632;2023-12-20T01:41:55;5.70;99.90
28530;DHT22;15737;49.760;6.632;2023-12-20T01:44:20;5.70;99.90
28530;DHT22;15737;49.760;6.632;2023-12-20T01:46:46;5.70;99.90
28530;DHT22;15737;49.760;6.632;2023-12-20T01:49:12;5.70;99.90
28530;DHT22;15737;49.760;6.632;2023-12-20T01:51:38;5.60;99.90
28530;DHT22;15737;49.760;6.632;2023-12-20T01:54:04;5.70;99.90
28530;DHT22;15737;49.760;6.632;2023-12-20T01:56:30;5.70;99.90
28530;DHT22;15737;49.760;6.632;2023-12-20T01:58:56;5.60;99.90
28530;DHT22;15737;49.760;6.632;2023-12-20T02:01:22;5.70;99.90
28530;DHT22;15737;49.760;6.632;2023-12-20T02:03:48;5.70;99.90
28530;DHT22;15737;49.760;6.632;2023-12-20T02:06:14;5.70;99.90
28530;DHT22;15737;49.760;6.632;2023-12-20T02:08:41;5.70;99.90
28530;DHT22;15737;49.760;6.632;2023-12-20T02:11:07;5.70;99.90
28530;DHT22;15737;49.760;6.632;2023-12-20T02:13:33;5.70;99.90
28530;DHT22;15737;49.760;6.632;2023-12-20T02:15:59;5.70;99.90
28530;DHT22;15737;49.760;6.632;2023-12-20T02:18:24;5.70;99.90
28530;DHT22;15737;49.760;6.632;2023-12-20T02:20:50;5.70;99.90
28530;DHT22;15737;49.760;6.632;2023-12-20T02:23:15;5.70;99.90
28530;DHT22;15737;49.760;6.632;2023-12-20T02:25:41;5.70;99.90
28530;DHT22;15737;49.760;6.632;2023-12-20T02:28:06;5.80;99.90
28530;DHT22;15737;49.760;6.632;2023-12-20T02:30:32;5.80;99.90
28530;DHT22;15737;49.760;6.632;2023-12-20T02:32:59;5.80;99.90
28530;DHT22;15737;49.760;6.632;2023-12-20T02:35:25;5.80;99.90
28530;DHT22;15737;49.760;6.632;2023-12-20T02:37:50;5.80;99.90
28530;DHT22;15737;49.760;6.632;2023-12-20T02:40:16;5.80;99.90
28530;DHT22;15737;49.760;6.632;2023-12-20T02:42:41;5.80;99.90
28530;DHT22;15737;49.760;6.632;2023-12-20T02:45:07;5.80;99.90
28530;DHT22;15737;49.760;6.632;2023-12-20T02:47:33;5.80;99.90
28530;DHT22;15737;49.760;6.632;2023-12-20T02:49:58;5.80;99.90
28530;DHT22;15737;49.760;6.632;2023-12-20T02:52:24;5.80;99.90
28530;DHT22;15737;49.760;6.632;2023-12-20T02:54:49;5.80;99.90
28530;DHT22;15737;49.760;6.632;2023-12-20T02:57:15;5.70;99.90
28530;DHT22;15737;49.760;6.632;2023-12-20T02:59:40;5.70;99.90
28530;DHT22;15737;49.760;6.632;2023-12-20T03:02:06;5.70;99.90
28530;DHT22;15737;49.760;6.632;2023-12-20T03:04:31;5.70;99.90
28530;DHT22;15737;49.760;6.632;2023-12-20T03:06:57;5.70;99.90
28530;DHT22;15737;49.760;6.632;2023-12-20T03:09:22;5.70;99.90
28530;DHT22;15737;49.760;6.632;2023-12-20T03:11:48;5.60;99.90
28530;DHT22;15737;49.760;6.632;2023-12-20T03:14:13;5.50;99.90
28530;DHT22;15737;49.760;6.632;2023-12-20T03:16:39;5.40;99.90
28530;DHT22;15737;49.760;6.632;2023-12-20T03:19:04;5.40;99.90
28530;DHT22;15737;49.760;6.632;2023-12-20T03:21:30;5.30;99.90
28530;DHT22;15737;49.760;6.632;2023-12-20T03:23:55;5.20;99.90
28530;DHT22;15737;49.760;6.632;2023-12-20T03:26:21;5.10;99.90
28530;DHT22;15737;49.760;6.632;2023-12-20T03:28:47;5.20;99.90
28530;DHT22;15737;49.760;6.632;2023-12-20T03:31:13;5.20;99.90
28530;DHT22;15737;49.760;6.632;2023-12-20T03:33:39;5.20;99.90
28530;DHT22;15737;49.760;6.632;2023-12-20T03:36:05;5.20;99.90
28530;DHT22;15737;49.760;6.632;2023-12-20T03:38:30;5.20;99.90
28530;DHT22;15737;49.760;6.632;2023-12-20T03:40:56;5.30;99.90
28530;DHT22;15737;49.760;6.632;2023-12-20T03:43:21;5.30;99.90
28530;DHT22;15737;49.760;6.632;2023-12-20T03:45:47;5.30;99.90
28530;DHT22;15737;49.760;6.632;2023-12-20T03:48:12;5.20;99.90
28530;DHT22;15737;49.760;6.632;2023-12-20T03:50:38;5.20;99.90
28530;DHT22;15737;49.760;6.632;2023-12-20T03:53:03;5.10;99.90
28530;DHT22;15737;49.760;6.632;2023-12-20T03:55:29;5.10;99.90
28530;DHT22;15737;49.760;6.632;2023-12-20T03:57:54;5.00;99.90
28530;DHT22;15737;49.760;6.632;2023-12-20T04:00:20;4.90;99.90
28530;DHT22;15737;49.760;6.632;2023-12-20T04:02:45;4.90;99.90
28530;DHT22;15737;49.760;6.632;2023-12-20T04:05:11;4.80;99.90
28530;DHT22;15737;49.760;6.632;2023-12-20T04:07:37;4.80;99.90
28530;DHT22;15737;49.760;6.632;2023-12-20T04:10:03;4.80;99.90
28530;DHT22;15737;49.760;6.632;2023-12-20T04:12:29;4.80;99.90
28530;DHT22;15737;49.760;6.632;2023-12-20T04:14:55;4.70;99.90
28530;DHT22;15737;49.760;6.632;2023-12-20T04:17:20;4.60;99.90
28530;DHT22;15737;49.760;6.632;2023-12-20T04:19:51;4.50;99.90
28530;DHT22;15737;49.760;6.632;2023-12-20T04:22:18;4.40;99.90
28530;DHT22;15737;49.760;6.632;2023-12-20T04:24:44;4.30;99.90
28530;DHT22;15737;49.760;6.632;2023-12-20T04:27:09;4.30;99.90
28530;DHT22;15737;49.760;6.632;2023-12-20T04:29:35;4.20;99.90
28530;DHT22;15737;49.760;6.632;2023-12-20T04:32:00;4.20;99.90
28530;DHT22;15737;49.760;6.632;2023-12-20T04:34:26;4.20;99.90
28530;DHT22;15737;49.760;6.632;2023-12-20T04:36:52;4.30;99.90
28530;DHT22;15737;49.760;6.632;2023-12-20T04:39:17;4.30;99.90
28530;DHT22;15737;49.760;6.632;2023-12-20T04:41:43;4.30;99.90
28530;DHT22;15737;49.760;6.632;2023-12-20T04:44:08;4.20;99.90
28530;DHT22;15737;49.760;6.632;2023-12-20T04:46:34;4.20;99.90
28530;DHT22;15737;49.760;6.632;2023-12-20T04:48:59;4.20;99.90
28530;DHT22;15737;49.760;6.632;2023-12-20T04:51:25;4.20;99.90
28530;DHT22;15737;49.760;6.632;2023-12-20T04:53:50;4.20;99.90
28530;DHT22;15737;49.760;6.632;2023-12-20T04:56:16;4.30;99.90
28530;DHT22;15737;49.760;6.632;2023-12-20T04:58:42;4.30;99.90
28530;DHT22;15737;49.760;6.632;2023-12-20T05:01:09;4.30;99.90
28530;DHT22;15737;49.760;6.632;2023-12-20T05:03:35;4.30;99.90
28530;DHT22;15737;49.760;6.632;2023-12-20T05:06:00;4.30;99.90
28530;DHT22;15737;49.760;6.632;2023-12-20T05:08:26;4.30;99.90
28530;DHT22;15737;49.760;6.632;2023-12-20T05:10:54;4.30;99.90
28530;DHT22;15737;49.760;6.632;2023-12-20T05:13:20;4.30;99.90
28530;DHT22;15737;49.760;6.632;2023-12-20T05:15:45;4.30;99.90
28530;DHT22;15737;49.760;6.632;2023-12-20T05:18:11;4.40;99.90
28530;DHT22;15737;49.760;6.632;2023-12-20T05:20:38;4.40;99.90
28530;DHT22;15737;49.760;6.632;2023-12-20T05:23:04;4.50;99.90
28530;DHT22;15737;49.760;6.632;2023-12-20T05:25:29;4.40;99.90
28530;DHT22;15737;49.760;6.632;2023-12-20T05:27:55;4.40;99.90
28530;DHT22;15737;49.760;6.632;2023-12-20T05:30:21;4.40;99.90
28530;DHT22;15737;49.760;6.632;2023-12-20T05:32:46;4.50;99.90
28530;DHT22;15737;49.760;6.632;2023-12-20T05:35:12;4.50;99.90
28530;DHT22;15737;49.760;6.632;2023-12-20T05:37:37;4.50;99.90
28530;DHT22;15737;49.760;6.632;2023-12-20T05:40:03;4.50;99.90
28530;DHT22;15737;49.760;6.632;2023-12-20T05:42:29;4.50;99.90
28530;DHT22;15737;49.760;6.632;2023-12-20T05:44:55;4.50;99.90
28530;DHT22;15737;49.760;6.632;2023-12-20T05:47:20;4.50;99.90
28530;DHT22;15737;49.760;6.632;2023-12-20T05:49:46;4.50;99.90
28530;DHT22;15737;49.760;6.632;2023-12-20T05:52:11;4.50;99.90
28530;DHT22;15737;49.760;6.632;2023-12-20T05:54:37;4.60;99.90
28530;DHT22;15737;49.760;6.632;2023-12-20T05:57:03;4.60;99.90
28530;DHT22;15737;49.760;6.632;2023-12-20T05:59:28;4.60;99.90
28530;DHT22;15737;49.760;6.632;2023-12-20T06:01:54;4.70;99.90
28530;DHT22;15737;49.760;6.632;2023-12-20T06:04:19;4.70;99.90
28530;DHT22;15737;49.760;6.632;2023-12-20T06:06:45;4.60;99.90
28530;DHT22;15737;49.760;6.632;2023-12-20T06:09:10;4.60;99.90
28530;DHT22;15737;49.760;6.632;2023-12-20T06:11:36;4.60;99.90
28530;DHT22;15737;49.760;6.632;2023-12-20T06:14:01;4.60;99.90
28530;DHT22;15737;49.760;6.632;2023-12-20T06:16:27;4.60;99.90
28530;DHT22;15737;49.760;6.632;2023-12-20T06:18:52;4.60;99.90
28530;DHT22;15737;49.760;6.632;2023-12-20T06:21:18;4.60;99.90
28530;DHT22;15737;49.760;6.632;2023-12-20T06:23:44;4.60;99.90
28530;DHT22;15737;49.760;6.632;2023-12-20T06:26:09;4.60;99.90
28530;DHT22;15737;49.760;6.632;2023-12-20T06:28:35;4.60;99.90
28530;DHT22;15737;49.760;6.632;2023-12-20T06:31:00;4.70;99.90
28530;DHT22;15737;49.760;6.632;2023-12-20T06:33:26;4.70;99.90
28530;DHT22;15737;49.760;6.632;2023-12-20T06:35:52;4.70;99.90
28530;DHT22;15737;49.760;6.632;2023-12-20T06:38:18;4.70;99.90
28530;DHT22;15737;49.760;6.632;2023-12-20T06:40:44;4.70;99.90
28530;DHT22;15737;49.760;6.632;2023-12-20T06:43:09;4.70;99.90
28530;DHT22;15737;49.760;6.632;2023-12-20T06:45:35;4.70;99.90
28530;DHT22;15737;49.760;6.632;2023-12-20T06:48:00;4.70;99.90
28530;DHT22;15737;49.760;6.632;2023-12-20T06:50:26;4.60;99.90
28530;DHT22;15737;49.760;6.632;2023-12-20T06:52:52;4.70;99.90
28530;DHT22;15737;49.760;6.632;2023-12-20T06:55:18;4.60;99.90
28530;DHT22;15737;49.760;6.632;2023-12-20T06:57:43;4.60;99.90
28530;DHT22;15737;49.760;6.632;2023-12-20T07:00:11;4.60;99.90
28530;DHT22;15737;49.760;6.632;2023-12-20T07:02:37;4.60;99.90
28530;DHT22;15737;49.760;6.632;2023-12-20T07:05:02;4.60;99.90
28530;DHT22;15737;49.760;6.632;2023-12-20T07:07:28;4.60;99.90
28530;DHT22;15737;49.760;6.632;2023-12-20T07:09:53;4.50;99.90
28530;DHT22;15737;49.760;6.632;2023-12-20T07:12:19;4.60;99.90
28530;DHT22;15737;49.760;6.632;2023-12-20T07:14:47;4.60;99.90
28530;DHT22;15737;49.760;6.632;2023-12-20T07:17:13;4.60;99.90
28530;DHT22;15737;49.760;6.632;2023-12-20T07:19:40;4.60;99.90
28530;DHT22;15737;49.760;6.632;2023-12-20T07:22:06;4.60;99.90
28530;DHT22;15737;49.760;6.632;2023-12-20T07:24:32;4.60;99.90
28530;DHT22;15737;49.760;6.632;2023-12-20T07:26:59;4.70;99.90
28530;DHT22;15737;49.760;6.632;2023-12-20T07:29:25;4.70;99.90
28530;DHT22;15737;49.760;6.632;2023-12-20T07:31:51;4.70;99.90
28530;DHT22;15737;49.760;6.632;2023-12-20T07:34:17;4.70;99.90
28530;DHT22;15737;49.760;6.632;2023-12-20T07:36:43;4.70;99.90
28530;DHT22;15737;49.760;6.632;2023-12-20T07:39:08;4.70;99.90
28530;DHT22;15737;49.760;6.632;2023-12-20T07:41:34;4.70;99.90
28530;DHT22;15737;49.760;6.632;2023-12-20T07:43:59;4.80;99.90
28530;DHT22;15737;49.760;6.632;2023-12-20T07:46:25;4.80;99.90
28530;DHT22;15737;49.760;6.632;2023-12-20T07:48:50;4.80;99.90
28530;DHT22;15737;49.760;6.632;2023-12-20T07:51:16;4.90;99.90
28530;DHT22;15737;49.760;6.632;2023-12-20T07:53:42;4.90;99.90
28530;DHT22;15737;49.760;6.632;2023-12-20T07:56:18;4.90;99.90
28530;DHT22;15737;49.760;6.632;2023-12-20T07:58:44;4.90;99.90
28530;DHT22;15737;49.760;6.632;2023-12-20T08:01:11;4.90;99.90
28530;DHT22;15737;49.760;6.632;2023-12-20T08:03:37;4.90;99.90
28530;DHT22;15737;49.760;6.632;2023-12-20T08:06:03;4.90;99.90
28530;DHT22;15737;49.760;6.632;2023-12-20T08:08:28;5.00;99.90
28530;DHT22;15737;49.760;6.632;2023-12-20T08:10:54;5.00;99.90
28530;DHT22;15737;49.760;6.632;2023-12-20T08:13:20;5.00;99.90
28530;DHT22;15737;49.760;6.632;2023-12-20T08:15:50;5.10;99.90
28530;DHT22;15737;49.760;6.632;2023-12-20T08:18:15;5.10;99.90
28530;DHT22;15737;49.760;6.632;2023-12-20T08:20:41;5.10;99.90
28530;DHT22;15737;49.760;6.632;2023-12-20T08:23:06;5.10;99.90
28530;DHT22;15737;49.760;6.632;2023-12-20T08:25:32;5.10;99.90
28530;DHT22;15737;49.760;6.632;2023-12-20T08:27:57;5.20;99.90
28530;DHT22;15737;49.760;6.632;2023-12-20T08:30:23;5.20;99.90
28530;DHT22;15737;49.760;6.632;2023-12-20T08:32:48;5.30;99.90
28530;DHT22;15737;49.760;6.632;2023-12-20T08:35:14;5.30;99.90
28530;DHT22;15737;49.760;6.632;2023-12-20T08:37:40;5.30;99.90
28530;DHT22;15737;49.760;6.632;2023-12-20T08:40:06;5.30;99.90
28530;DHT22;15737;49.760;6.632;2023-12-20T08:42:31;5.30;99.90
28530;DHT22;15737;49.760;6.632;2023-12-20T08:44:58;5.30;99.90
28530;DHT22;15737;49.760;6.632;2023-12-20T08:47:26;5.30;99.90
28530;DHT22;15737;49.760;6.632;2023-12-20T08:49:52;5.30;99.90
28530;DHT22;15737;49.760;6.632;2023-12-20T08:52:22;5.40;99.90
28530;DHT22;15737;49.760;6.632;2023-12-20T08:54:48;5.80;99.90
28530;DHT22;15737;49.760;6.632;2023-12-20T08:57:14;6.10;99.90
28530;DHT22;15737;49.760;6.632;2023-12-20T08:59:39;6.00;99.90
28530;DHT22;15737;49.760;6.632;2023-12-20T09:02:05;5.90;99.90
28530;DHT22;15737;49.760;6.632;2023-12-20T09:04:30;5.80;99.90
28530;DHT22;15737;49.760;6.632;2023-12-20T09:06:56;5.70;99.90
28530;DHT22;15737;49.760;6.632;2023-12-20T09:09:21;5.60;99.90
28530;DHT22;15737;49.760;6.632;2023-12-20T09:11:47;5.70;99.90
28530;DHT22;15737;49.760;6.632;2023-12-20T09:14:15;5.80;99.90
28530;DHT22;15737;49.760;6.632;2023-12-20T09:16:41;5.90;99.90
28530;DHT22;15737;49.760;6.632;2023-12-20T09:19:06;6.10;99.90
28530;DHT22;15737;49.760;6.632;2023-12-20T09:21:32;6.20;99.90
28530;DHT22;15737;49.760;6.632;2023-12-20T09:23:57;6.30;99.90
28530;DHT22;15737;49.760;6.632;2023-12-20T09:26:23;6.40;99.90
28530;DHT22;15737;49.760;6.632;2023-12-20T09:28:48;6.40;99.90
28530;DHT22;15737;49.760;6.632;2023-12-20T09:31:14;6.40;99.90
28530;DHT22;15737;49.760;6.632;2023-12-20T09:33:39;6.40;99.90
28530;DHT22;15737;49.760;6.632;2023-12-20T09:36:05;6.40;99.90
28530;DHT22;15737;49.760;6.632;2023-12-20T09:38:30;6.40;99.90
28530;DHT22;15737;49.760;6.632;2023-12-20T09:40:56;6.40;99.90
28530;DHT22;15737;49.760;6.632;2023-12-20T09:43:24;6.40;99.90
28530;DHT22;15737;49.760;6.632;2023-12-20T09:48:21;6.40;99.90
28530;DHT22;15737;49.760;6.632;2023-12-20T09:50:47;6.40;99.90
28530;DHT22;15737;49.760;6.632;2023-12-20T09:53:15;6.30;99.90
28530;DHT22;15737;49.760;6.632;2023-12-20T09:55:42;6.30;99.90
28530;DHT22;15737;49.760;6.632;2023-12-20T09:58:08;6.30;99.90
28530;DHT22;15737;49.760;6.632;2023-12-20T10:00:34;6.30;99.90
28530;DHT22;15737;49.760;6.632;2023-12-20T10:03:00;6.40;99.90
28530;DHT22;15737;49.760;6.632;2023-12-20T10:05:33;6.50;99.90
28530;DHT22;15737;49.760;6.632;2023-12-20T10:08:00;6.70;99.90
28530;DHT22;15737;49.760;6.632;2023-12-20T10:10:26;7.00;99.90
28530;DHT22;15737;49.760;6.632;2023-12-20T10:15:32;7.20;99.90
28530;DHT22;15737;49.760;6.632;2023-12-20T10:17:58;7.20;99.90
28530;DHT22;15737;49.760;6.632;2023-12-20T10:20:24;7.50;99.90
28530;DHT22;15737;49.760;6.632;2023-12-20T10:22:50;7.60;99.90
28530;DHT22;15737;49.760;6.632;2023-12-20T10:25:19;7.60;99.90
28530;DHT22;15737;49.760;6.632;2023-12-20T10:27:45;7.40;99.90
28530;DHT22;15737;49.760;6.632;2023-12-20T10:30:11;7.30;99.90
28530;DHT22;15737;49.760;6.632;2023-12-20T10:32:36;7.30;99.90
28530;DHT22;15737;49.760;6.632;2023-12-20T10:35:02;7.10;99.90
28530;DHT22;15737;49.760;6.632;2023-12-20T10:37:28;7.00;99.90
28530;DHT22;15737;49.760;6.632;2023-12-20T10:39:54;6.80;99.90
28530;DHT22;15737;49.760;6.632;2023-12-20T10:42:26;6.80;99.90
28530;DHT22;15737;49.760;6.632;2023-12-20T10:44:51;6.90;99.90
28530;DHT22;15737;49.760;6.632;2023-12-20T10:47:19;6.80;99.90
28530;DHT22;15737;49.760;6.632;2023-12-20T10:49:45;6.70;99.90
28530;DHT22;15737;49.760;6.632;2023-12-20T10:52:12;6.70;99.90
28530;DHT22;15737;49.760;6.632;2023-12-20T10:54:39;6.70;99.90
28530;DHT22;15737;49.760;6.632;2023-12-20T10:57:06;6.70;99.90
28530;DHT22;15737;49.760;6.632;2023-12-20T10:59:33;6.60;99.90
28530;DHT22;15737;49.760;6.632;2023-12-20T11:02:02;6.60;99.90
28530;DHT22;15737;49.760;6.632;2023-12-20T11:04:39;6.60;99.90
28530;DHT22;15737;49.760;6.632;2023-12-20T11:07:20;6.70;99.90
28530;DHT22;15737;49.760;6.632;2023-12-20T11:10:18;6.70;99.90
28530;DHT22;15737;49.760;6.632;2023-12-20T11:12:51;6.70;99.90
28530;DHT22;15737;49.760;6.632;2023-12-20T11:15:18;6.80;99.90
28530;DHT22;15737;49.760;6.632;2023-12-20T11:17:45;6.80;99.90
28530;DHT22;15737;49.760;6.632;2023-12-20T11:20:11;6.80;99.90
28530;DHT22;15737;49.760;6.632;2023-12-20T11:22:37;7.00;99.90
28530;DHT22;15737;49.760;6.632;2023-12-20T11:25:11;7.10;99.90
28530;DHT22;15737;49.760;6.632;2023-12-20T11:27:40;7.20;99.90
28530;DHT22;15737;49.760;6.632;2023-12-20T11:30:06;7.20;99.90
28530;DHT22;15737;49.760;6.632;2023-12-20T11:32:35;7.20;99.90
28530;DHT22;15737;49.760;6.632;2023-12-20T11:35:17;7.20;99.90
28530;DHT22;15737;49.760;6.632;2023-12-20T11:37:45;7.20;99.90
28530;DHT22;15737;49.760;6.632;2023-12-20T11:40:16;7.40;99.90
28530;DHT22;15737;49.760;6.632;2023-12-20T11:42:49;7.60;99.90
28530;DHT22;15737;49.760;6.632;2023-12-20T11:45:16;7.70;99.90
28530;DHT22;15737;49.760;6.632;2023-12-20T11:47:46;7.50;99.90
28530;DHT22;15737;49.760;6.632;2023-12-20T11:50:12;7.40;99.90
28530;DHT22;15737;49.760;6.632;2023-12-20T11:52:37;7.30;99.90
28530;DHT22;15737;49.760;6.632;2023-12-20T11:55:03;7.20;99.90
28530;DHT22;15737;49.760;6.632;2023-12-20T11:57:33;7.20;99.90
28530;DHT22;15737;49.760;6.632;2023-12-20T11:59:59;7.10;99.90
28530;DHT22;15737;49.760;6.632;2023-12-20T12:02:24;7.10;99.90
28530;DHT22;15737;49.760;6.632;2023-12-20T12:04:50;7.10;99.90
28530;DHT22;15737;49.760;6.632;2023-12-20T12:07:18;7.10;99.90
28530;DHT22;15737;49.760;6.632;2023-12-20T12:09:44;7.10;99.90
28530;DHT22;15737;49.760;6.632;2023-12-20T12:12:11;6.90;99.90
28530;DHT22;15737;49.760;6.632;2023-12-20T12:14:37;6.80;99.90
28530;DHT22;15737;49.760;6.632;2023-12-20T12:17:04;6.80;99.90
28530;DHT22;15737;49.760;6.632;2023-12-20T12:19:30;6.70;99.90
28530;DHT22;15737;49.760;6.632;2023-12-20T12:22:14;6.70;99.90
28530;DHT22;15737;49.760;6.632;2023-12-20T12:24:42;6.60;99.90
28530;DHT22;15737;49.760;6.632;2023-12-20T12:27:08;6.70;99.90
28530;DHT22;15737;49.760;6.632;2023-12-20T12:29:37;6.60;99.90
28530;DHT22;15737;49.760;6.632;2023-12-20T12:32:07;6.60;99.90
28530;DHT22;15737;49.760;6.632;2023-12-20T12:34:34;6.50;99.90
28530;DHT22;15737;49.760;6.632;2023-12-20T12:37:00;6.50;99.90
28530;DHT22;15737;49.760;6.632;2023-12-20T12:39:26;6.60;99.90
28530;DHT22;15737;49.760;6.632;2023-12-20T12:41:52;6.70;99.90
28530;DHT22;15737;49.760;6.632;2023-12-20T12:44:17;6.70;99.90
28530;DHT22;15737;49.760;6.632;2023-12-20T12:46:46;6.80;99.90
28530;DHT22;15737;49.760;6.632;2023-12-20T12:49:12;6.70;99.90
28530;DHT22;15737;49.760;6.632;2023-12-20T12:51:38;6.80;99.90
28530;DHT22;15737;49.760;6.632;2023-12-20T12:54:04;6.90;99.90
28530;DHT22;15737;49.760;6.632;2023-12-20T12:56:29;7.00;99.90
28530;DHT22;15737;49.760;6.632;2023-12-20T12:58:55;7.20;99.90
28530;DHT22;15737;49.760;6.632;2023-12-20T13:01:21;7.40;99.90
28530;DHT22;15737;49.760;6.632;2023-12-20T13:03:46;7.40;99.90
28530;DHT22;15737;49.760;6.632;2023-12-20T13:06:12;7.50;99.90
28530;DHT22;15737;49.760;6.632;2023-12-20T13:08:38;7.50;99.90
28530;DHT22;15737;49.760;6.632;2023-12-20T13:11:03;7.50;99.90
28530;DHT22;15737;49.760;6.632;2023-12-20T13:13:30;7.60;99.90
28530;DHT22;15737;49.760;6.632;2023-12-20T13:15:56;7.70;99.90
28530;DHT22;15737;49.760;6.632;2023-12-20T13:18:22;7.60;99.90
28530;DHT22;15737;49.760;6.632;2023-12-20T13:20:48;7.60;99.90
28530;DHT22;15737;49.760;6.632;2023-12-20T13:23:14;7.50;99.90
28530;DHT22;15737;49.760;6.632;2023-12-20T13:25:40;7.50;99.90
28530;DHT22;15737;49.760;6.632;2023-12-20T13:28:06;7.50;99.90
28530;DHT22;15737;49.760;6.632;2023-12-20T13:30:31;7.40;99.90
28530;DHT22;15737;49.760;6.632;2023-12-20T13:32:57;7.20;99.90
28530;DHT22;15737;49.760;6.632;2023-12-20T13:35:23;7.10;99.90
28530;DHT22;15737;49.760;6.632;2023-12-20T13:37:49;7.10;99.90
28530;DHT22;15737;49.760;6.632;2023-12-20T13:40:14;7.10;99.90
28530;DHT22;15737;49.760;6.632;2023-12-20T13:42:40;7.00;99.90
28530;DHT22;15737;49.760;6.632;2023-12-20T13:45:06;7.00;99.90
28530;DHT22;15737;49.760;6.632;2023-12-20T13:47:32;7.00;99.90
28530;DHT22;15737;49.760;6.632;2023-12-20T13:49:58;7.00;99.90
28530;DHT22;15737;49.760;6.632;2023-12-20T13:52:23;6.90;99.90
28530;DHT22;15737;49.760;6.632;2023-12-20T13:54:49;6.90;99.90
28530;DHT22;15737;49.760;6.632;2023-12-20T13:57:14;6.80;99.90
28530;DHT22;15737;49.760;6.632;2023-12-20T13:59:40;6.80;99.90
28530;DHT22;15737;49.760;6.632;2023-12-20T14:02:05;6.80;99.90
28530;DHT22;15737;49.760;6.632;2023-12-20T14:04:31;6.70;99.90
28530;DHT22;15737;49.760;6.632;2023-12-20T14:06:57;6.70;99.90
28530;DHT22;15737;49.760;6.632;2023-12-20T14:09:23;6.60;99.90
28530;DHT22;15737;49.760;6.632;2023-12-20T14:11:49;6.60;99.90
28530;DHT22;15737;49.760;6.632;2023-12-20T14:14:14;6.60;99.90
28530;DHT22;15737;49.760;6.632;2023-12-20T14:16:40;6.60;99.90
28530;DHT22;15737;49.760;6.632;2023-12-20T14:19:05;6.60;99.90
28530;DHT22;15737;49.760;6.632;2023-12-20T14:21:33;6.60;99.90
28530;DHT22;15737;49.760;6.632;2023-12-20T14:23:59;6.60;99.90
28530;DHT22;15737;49.760;6.632;2023-12-20T14:26:24;6.60;99.90
28530;DHT22;15737;49.760;6.632;2023-12-20T14:28:50;6.60;99.90
28530;DHT22;15737;49.760;6.632;2023-12-20T14:31:15;6.60;99.90
28530;DHT22;15737;49.760;6.632;2023-12-20T14:33:41;6.50;99.90
28530;DHT22;15737;49.760;6.632;2023-12-20T14:36:07;6.50;99.90
28530;DHT22;15737;49.760;6.632;2023-12-20T14:38:33;6.50;99.90
28530;DHT22;15737;49.760;6.632;2023-12-20T14:40:59;6.50;99.90
28530;DHT22;15737;49.760;6.632;2023-12-20T14:43:25;6.50;99.90
28530;DHT22;15737;49.760;6.632;2023-12-20T14:45:51;6.50;99.90
28530;DHT22;15737;49.760;6.632;2023-12-20T14:48:17;6.50;99.90
28530;DHT22;15737;49.760;6.632;2023-12-20T14:50:43;6.50;99.90
28530;DHT22;15737;49.760;6.632;2023-12-20T14:53:09;6.50;99.90
28530;DHT22;15737;49.760;6.632;2023-12-20T14:55:35;6.50;99.90
28530;DHT22;15737;49.760;6.632;2023-12-20T14:58:01;6.50;99.90
28530;DHT22;15737;49.760;6.632;2023-12-20T15:00:27;6.50;99.90
28530;DHT22;15737;49.760;6.632;2023-12-20T15:02:52;6.50;99.90
28530;DHT22;15737;49.760;6.632;2023-12-20T15:05:19;6.50;99.90
28530;DHT22;15737;49.760;6.632;2023-12-20T15:07:45;6.50;99.90
28530;DHT22;15737;49.760;6.632;2023-12-20T15:10:12;6.50;99.90
28530;DHT22;15737;49.760;6.632;2023-12-20T15:12:38;6.50;99.90
28530;DHT22;15737;49.760;6.632;2023-12-20T15:15:04;6.50;99.90
28530;DHT22;15737;49.760;6.632;2023-12-20T15:17:30;6.50;99.90
28530;DHT22;15737;49.760;6.632;2023-12-20T15:19:55;6.50;99.90
28530;DHT22;15737;49.760;6.632;2023-12-20T15:22:21;6.50;99.90
28530;DHT22;15737;49.760;6.632;2023-12-20T15:24:46;6.50;99.90
28530;DHT22;15737;49.760;6.632;2023-12-20T15:27:12;6.50;99.90
28530;DHT22;15737;49.760;6.632;2023-12-20T15:29:38;6.50;99.90
28530;DHT22;15737;49.760;6.632;2023-12-20T15:32:06;6.60;99.90
28530;DHT22;15737;49.760;6.632;2023-12-20T15:34:32;6.60;99.90
28530;DHT22;15737;49.760;6.632;2023-12-20T15:36:57;6.60;99.90
28530;DHT22;15737;49.760;6.632;2023-12-20T15:39:23;6.60;99.90
28530;DHT22;15737;49.760;6.632;2023-12-20T15:41:48;6.50;99.90
28530;DHT22;15737;49.760;6.632;2023-12-20T15:44:14;6.50;99.90
28530;DHT22;15737;49.760;6.632;2023-12-20T15:46:40;6.50;99.90